Time;durP1;ratioP1;P1;durP2;ratioP2;P2;SDS_P1;SDS_P2;PMS_P1;PMS_P2;Temp;Humidity;BMP_temperature;BMP_pressure;BME280_temperature;BME280_humidity;BME280_pressure;Samples;Min_cycle;Max_cycle;Signal;HPM_P1;HPM_P2
2023/04/04 00:00:39;;;;;;;4.47;0.57;;;;;;;3.61;48.78;101568.22;10183870;29;20040;-72
2023/04/04 00:05:41;;;;;;;2.05;0.40;;;;;;;3.60;49.00;101574.53;10176110;29;20092;-72
2023/04/04 00:10:43;;;;;;;4.45;0.40;;;;;;;3.50;49.47;101561.81;10186827;29;20080;-73
2023/04/04 00:15:44;;;;;;;1.25;0.57;;;;;;;3.46;49.22;101559.47;10186598;29;20056;-72
2023/04/04 00:20:45;;;;;;;1.42;0.55;;;;;;;3.38;49.64;101557.31;10182840;29;20048;-72
2023/04/04 00:25:51;;;;;;;1.42;0.50;;;;;;;3.27;50.13;101552.66;10157149;29;20052;-72
2023/04/04 00:30:53;;;;;;;3.22;0.60;;;;;;;3.27;49.85;101554.47;10185135;29;20497;-72
2023/04/04 00:35:54;;;;;;;1.08;0.45;;;;;;;3.20;50.51;101546.06;10187858;29;20053;-72
2023/04/04 00:40:56;;;;;;;3.47;0.70;;;;;;;3.17;50.50;101546.25;10167878;29;20072;-72
2023/04/04 00:45:58;;;;;;;3.35;1.00;;;;;;;3.07;50.53;101542.47;10164358;29;20041;-72
2023/04/04 00:50:59;;;;;;;4.85;1.05;;;;;;;3.03;50.60;101549.78;10174227;29;20054;-73
2023/04/04 00:56:01;;;;;;;2.33;0.57;;;;;;;2.97;50.40;101550.19;10187995;28;20270;-72
2023/04/04 01:01:04;;;;;;;0.95;0.50;;;;;;;2.96;50.72;101541.38;10170600;29;20056;-72
2023/04/04 01:06:07;;;;;;;2.75;0.65;;;;;;;2.95;50.51;101542.31;10178113;29;20079;-72
2023/04/04 01:11:08;;;;;;;1.75;0.63;;;;;;;2.95;50.50;101531.69;10187269;29;20059;-72
2023/04/04 01:16:10;;;;;;;1.58;0.93;;;;;;;2.91;50.34;101532.81;10188645;28;20564;-72
2023/04/04 01:21:15;;;;;;;1.80;1.08;;;;;;;2.89;50.80;101532.06;10186603;28;20036;-71
2023/04/04 01:26:20;;;;;;;1.30;0.90;;;;;;;2.86;51.30;101524.28;10183952;28;20071;-71
2023/04/04 01:31:30;;;;;;;3.80;0.90;;;;;;;2.81;50.97;101531.72;10185906;28;20744;-71
2023/04/04 01:36:41;;;;;;;1.52;0.60;;;;;;;2.83;51.71;101531.63;10189950;28;20032;-71
2023/04/04 01:41:47;;;;;;;1.17;0.82;;;;;;;2.80;51.08;101529.13;10191312;28;20063;-71
2023/04/04 01:46:53;;;;;;;1.70;0.68;;;;;;;2.78;51.29;101529.22;10188625;28;20056;-71
2023/04/04 01:51:55;;;;;;;2.75;0.80;;;;;;;2.70;51.62;101524.41;10176279;28;20044;-71
2023/04/04 01:56:57;;;;;;;4.22;1.30;;;;;;;2.69;51.31;101530.69;10189523;28;20057;-72
2023/04/04 02:01:58;;;;;;;2.40;1.52;;;;;;;2.69;51.91;101529.81;10181000;28;20059;-71
2023/04/04 02:06:59;;;;;;;4.45;1.23;;;;;;;2.66;51.77;101530.84;10187043;29;20065;-71
2023/04/04 02:12:01;;;;;;;2.22;1.15;;;;;;;2.58;51.97;101531.31;10189482;28;20085;-71
2023/04/04 02:17:02;;;;;;;1.48;1.10;;;;;;;2.58;51.99;101533.13;10162506;28;1021576;-71
2023/04/04 02:22:04;;;;;;;3.38;1.60;;;;;;;2.55;51.80;101525.38;10199684;28;20370;-71
2023/04/04 02:27:06;;;;;;;2.53;1.30;;;;;;;2.53;52.44;101521.97;10200416;28;20228;-72
2023/04/04 02:32:07;;;;;;;2.88;1.48;;;;;;;2.52;52.22;101522.91;10198583;28;20040;-71
2023/04/04 02:37:09;;;;;;;2.15;1.60;;;;;;;2.54;51.88;101518.34;10199060;28;20035;-71
2023/04/04 02:42:10;;;;;;;2.72;1.30;;;;;;;2.52;51.94;101513.13;10198832;28;20032;-71
2023/04/04 02:47:11;;;;;;;3.22;1.50;;;;;;;2.51;52.34;101515.91;10203112;28;20099;-71
2023/04/04 02:52:13;;;;;;;4.65;1.83;;;;;;;2.49;52.42;101505.38;10199621;28;20036;-72
2023/04/04 02:57:14;;;;;;;6.05;1.80;;;;;;;2.53;52.05;101503.38;10202916;28;20055;-72
2023/04/04 03:02:16;;;;;;;5.38;2.72;;;;;;;2.55;52.05;101493.53;10196781;28;20068;-71
2023/04/04 03:07:17;;;;;;;2.35;1.63;;;;;;;2.51;51.91;101490.22;10190418;28;20075;-72
2023/04/04 03:12:20;;;;;;;5.25;1.63;;;;;;;2.44;52.64;101488.88;10198183;28;20024;-72
2023/04/04 03:17:22;;;;;;;2.88;1.60;;;;;;;2.42;52.23;101484.63;10198219;28;20032;-71
2023/04/04 03:22:23;;;;;;;5.57;2.17;;;;;;;2.40;52.81;101486.50;10191674;28;20067;-72
2023/04/04 03:27:25;;;;;;;4.40;1.60;;;;;;;2.35;52.64;101481.47;10180531;28;20143;-73
2023/04/04 03:32:27;;;;;;;2.38;1.33;;;;;;;2.33;52.94;101478.94;10188036;28;20032;-72
2023/04/04 03:37:29;;;;;;;8.15;2.08;;;;;;;2.31;52.92;101472.00;10195329;28;20043;-72
2023/04/04 03:42:33;;;;;;;3.08;1.60;;;;;;;2.24;53.43;101479.50;10181264;28;20032;-72
2023/04/04 03:47:35;;;;;;;2.38;1.38;;;;;;;2.23;53.08;101472.47;10194216;28;20751;-72
2023/04/04 03:52:40;;;;;;;6.30;1.70;;;;;;;2.22;53.42;101462.81;10195048;28;20043;-72
2023/04/04 03:57:42;;;;;;;2.53;1.33;;;;;;;2.21;53.13;101466.41;10191866;29;20059;-72
2023/04/04 04:02:43;;;;;;;4.72;1.58;;;;;;;2.17;53.25;101471.06;10193428;28;20055;-71
2023/04/04 04:07:45;;;;;;;4.57;1.80;;;;;;;2.23;53.01;101459.22;10173680;28;20032;-71
2023/04/04 04:12:47;;;;;;;3.58;1.50;;;;;;;2.22;53.25;101454.03;10183118;28;20092;-72
2023/04/04 04:17:48;;;;;;;3.42;2.00;;;;;;;2.18;53.28;101453.34;10181886;28;20084;-72
2023/04/04 04:22:50;;;;;;;2.50;1.83;;;;;;;2.13;53.63;101458.06;10190027;28;20047;-71
2023/04/04 04:27:55;;;;;;;2.58;1.85;;;;;;;2.13;53.51;101456.28;10191222;28;20327;-71
2023/04/04 04:32:57;;;;;;;5.50;1.48;;;;;;;2.12;53.13;101467.84;10195802;28;20044;-72
2023/04/04 04:37:58;;;;;;;4.25;1.45;;;;;;;2.07;53.20;101458.44;10194134;28;20040;-71
2023/04/04 04:43:00;;;;;;;5.30;1.73;;;;;;;2.01;53.42;101458.81;10196005;28;20043;-72
2023/04/04 04:48:01;;;;;;;2.67;1.77;;;;;;;1.95;53.26;101465.34;10189352;28;20039;-72
2023/04/04 04:53:03;;;;;;;3.20;2.20;;;;;;;1.93;53.60;101468.09;10190728;28;20044;-71
2023/04/04 04:58:05;;;;;;;3.55;1.80;;;;;;;1.97;54.19;101468.75;10138924;29;20052;-70
2023/04/04 05:03:06;;;;;;;4.07;1.98;;;;;;;2.08;53.43;101468.97;10124060;29;20064;-70
2023/04/04 05:08:07;;;;;;;5.07;2.50;;;;;;;2.11;53.37;101471.44;10139348;29;20048;-70
2023/04/04 05:13:09;;;;;;;2.80;1.70;;;;;;;2.14;53.36;101476.56;10143726;29;20095;-69
2023/04/04 05:18:11;;;;;;;3.55;2.83;;;;;;;2.18;54.03;101466.63;10140785;29;20048;-68
2023/04/04 05:23:12;;;;;;;5.95;3.10;;;;;;;2.29;53.17;101469.47;10142020;29;20091;-70
2023/04/04 05:28:14;;;;;;;7.47;3.13;;;;;;;2.35;53.01;101468.22;10136675;29;20139;-69
2023/04/04 05:33:15;;;;;;;4.57;2.67;;;;;;;2.42;53.22;101463.38;10139981;29;20048;-69
2023/04/04 05:38:16;;;;;;;5.10;2.92;;;;;;;2.46;53.80;101464.91;10138243;29;20104;-69
2023/04/04 05:43:18;;;;;;;5.35;2.80;;;;;;;2.60;53.25;101472.84;10144029;29;20040;-68
2023/04/04 05:48:19;;;;;;;7.05;3.75;;;;;;;2.66;53.66;101467.13;10146735;29;20083;-69
2023/04/04 05:53:21;;;;;;;4.28;2.42;;;;;;;2.77;52.87;101467.31;10151380;29;20147;-69
2023/04/04 05:58:22;;;;;;;5.53;3.53;;;;;;;2.89;53.16;101470.16;10146280;29;20107;-68
2023/04/04 06:03:24;;;;;;;4.55;2.40;;;;;;;3.06;52.99;101471.69;10146900;29;20074;-68
2023/04/04 06:08:26;;;;;;;6.10;2.67;;;;;;;3.18;52.86;101470.94;10150741;29;20048;-68
2023/04/04 06:13:27;;;;;;;4.65;2.53;;;;;;;3.27;52.95;101478.28;10142161;29;20107;-68
2023/04/04 06:18:28;;;;;;;4.90;2.88;;;;;;;3.37;53.54;101474.03;10147235;29;20138;-69
2023/04/04 06:23:30;;;;;;;5.22;2.20;;;;;;;3.53;53.49;101478.34;10149131;29;20129;-68
2023/04/04 06:28:31;;;;;;;4.50;2.72;;;;;;;3.69;53.56;101478.16;10146566;29;20456;-68
2023/04/04 06:33:33;;;;;;;4.55;2.67;;;;;;;3.74;53.57;101476.91;10122208;29;20075;-67
2023/04/04 06:38:35;;;;;;;3.88;2.33;;;;;;;3.90;53.05;101475.88;10153276;29;20053;-67
2023/04/04 06:43:36;;;;;;;2.85;2.10;;;;;;;4.02;53.17;101485.66;10144466;29;20476;-65
2023/04/04 06:48:38;;;;;;;10.68;2.00;;;;;;;4.22;52.70;101478.97;10147432;29;20076;-69
2023/04/04 06:53:39;;;;;;;8.23;1.88;;;;;;;4.43;52.44;101489.09;10135091;29;20090;-67
2023/04/04 06:58:40;;;;;;;4.70;2.60;;;;;;;4.55;52.43;101491.72;10143864;29;20076;-68
2023/04/04 07:03:43;;;;;;;2.47;1.85;;;;;;;4.76;52.20;101486.69;10138618;29;20124;-67
2023/04/04 07:08:44;;;;;;;2.95;1.55;;;;;;;5.03;51.78;101487.44;10139957;29;20072;-68
2023/04/04 07:13:46;;;;;;;3.22;1.88;;;;;;;5.21;51.41;101486.09;10127858;29;20075;-67
2023/04/04 07:18:47;;;;;;;1.77;1.52;;;;;;;5.42;50.79;101498.81;10148390;29;20055;-66
2023/04/04 07:23:49;;;;;;;3.92;1.75;;;;;;;5.54;50.77;101496.06;10132963;29;20226;-65
2023/04/04 07:28:51;;;;;;;2.30;1.00;;;;;;;5.65;50.67;101497.94;10134345;29;20080;-68
2023/04/04 07:33:53;;;;;;;2.35;1.45;;;;;;;5.74;49.98;101491.91;10140523;29;20311;-65
2023/04/04 07:38:54;;;;;;;4.07;1.50;;;;;;;5.85;50.04;101492.91;10144806;29;20107;-65
2023/04/04 07:43:56;;;;;;;3.60;0.93;;;;;;;5.94;49.77;101492.19;10144010;29;20049;-68
2023/04/04 07:48:57;;;;;;;1.48;0.85;;;;;;;6.03;48.52;101494.19;10137358;29;20119;-68
2023/04/04 07:53:58;;;;;;;2.00;0.85;;;;;;;6.17;48.80;101484.28;10143704;29;20075;-68
2023/04/04 07:59:00;;;;;;;4.03;0.90;;;;;;;6.41;47.95;101485.00;10141547;29;20132;-69
2023/04/04 08:04:01;;;;;;;1.60;0.68;;;;;;;6.45;47.55;101477.63;10141893;29;20059;-69
2023/04/04 08:09:03;;;;;;;3.35;1.00;;;;;;;6.48;47.62;101477.38;10142066;29;20049;-69
2023/04/04 08:14:05;;;;;;;4.65;1.70;;;;;;;6.70;46.82;101474.69;10140583;29;20170;-69
2023/04/04 08:19:07;;;;;;;3.85;0.70;;;;;;;6.83;46.16;101471.91;10144912;29;20052;-68
2023/04/04 08:24:08;;;;;;;2.30;0.60;;;;;;;7.03;46.18;101472.09;10140239;29;20104;-69
2023/04/04 08:29:10;;;;;;;2.88;0.60;;;;;;;7.19;46.02;101461.84;10141742;29;20060;-68
2023/04/04 08:34:12;;;;;;;3.95;0.77;;;;;;;7.29;44.97;101468.13;10143314;29;20090;-70
2023/04/04 08:39:13;;;;;;;4.90;1.25;;;;;;;7.24;44.98;101464.97;10144780;29;20048;-70
2023/04/04 08:44:19;;;;;;;2.30;1.52;;;;;;;7.37;44.07;101466.66;10139188;29;20056;-69
2023/04/04 08:49:22;;;;;;;3.50;1.00;;;;;;;7.26;44.36;101463.03;10140157;29;20503;-70
2023/04/04 08:54:25;;;;;;;1.67;0.73;;;;;;;7.27;43.90;101458.53;10128904;29;20108;-70
2023/04/04 08:59:26;;;;;;;4.72;0.80;;;;;;;7.38;42.92;101454.97;10140862;29;20049;-70
2023/04/04 09:04:28;;;;;;;1.33;0.40;;;;;;;7.75;42.99;101452.72;10138603;29;20072;-70
2023/04/04 09:09:33;;;;;;;1.75;0.60;;;;;;;7.98;42.15;101456.13;10143938;29;20674;-70
2023/04/04 09:14:37;;;;;;;2.80;0.70;;;;;;;8.20;41.92;101447.06;10132055;29;20071;-70
2023/04/04 09:19:38;;;;;;;1.85;0.55;;;;;;;8.30;41.22;101445.28;10141341;29;20086;-70
2023/04/04 09:24:42;;;;;;;2.47;0.60;;;;;;;8.37;40.86;101448.25;10145405;29;20083;-70
2023/04/04 09:29:43;;;;;;;2.53;0.70;;;;;;;8.45;40.74;101443.13;10147164;29;20060;-69
2023/04/04 09:34:45;;;;;;;1.58;0.65;;;;;;;8.60;40.24;101443.59;10130366;29;21480;-70
2023/04/04 09:39:47;;;;;;;2.90;0.60;;;;;;;8.89;39.70;101437.47;10143828;29;20040;-70
2023/04/04 09:44:53;;;;;;;3.22;0.60;;;;;;;9.12;38.95;101430.00;10143120;29;20040;-69
2023/04/04 09:49:59;;;;;;;1.13;0.57;;;;;;;9.11;38.80;101423.81;10147163;29;20143;-68
2023/04/04 09:55:03;;;;;;;2.03;0.85;;;;;;;9.29;38.20;101432.00;10150948;29;20626;-70
2023/04/04 10:00:08;;;;;;;1.63;0.43;;;;;;;9.45;38.19;101438.66;10135515;29;20040;-69
2023/04/04 10:05:10;;;;;;;2.55;0.50;;;;;;;9.55;37.83;101434.13;10148471;29;20130;-69
2023/04/04 10:10:12;;;;;;;4.47;0.50;;;;;;;9.79;37.62;101432.81;10150908;29;20063;-69
2023/04/04 10:15:15;;;;;;;3.85;0.93;;;;;;;9.86;37.55;101431.25;10148616;29;20123;-69
2023/04/04 10:20:17;;;;;;;1.63;0.90;;;;;;;9.86;37.12;101423.19;10134347;29;20044;-71
2023/04/04 10:25:19;;;;;;;0.93;0.40;;;;;;;10.00;36.76;101420.03;10129305;29;20079;-72
2023/04/04 10:30:20;;;;;;;3.53;0.50;;;;;;;10.24;36.05;101419.53;10133002;29;20044;-70
2023/04/04 10:35:23;;;;;;;2.72;0.60;;;;;;;10.43;35.86;101421.34;10143136;29;20482;-69
2023/04/04 10:40:32;;;;;;;3.38;0.70;;;;;;;10.79;35.28;101416.03;10152192;29;20053;-70
2023/04/04 10:45:37;;;;;;;1.42;0.60;;;;;;;11.36;34.47;101401.47;10142200;29;20103;-71
2023/04/04 10:50:39;;;;;;;2.08;0.82;;;;;;;11.66;34.12;101414.50;10143315;29;20048;-71
2023/04/04 10:55:43;;;;;;;2.67;0.70;;;;;;;12.19;33.24;101401.91;10132453;29;20068;-70
2023/04/04 11:00:53;;;;;;;2.38;0.47;;;;;;;12.28;32.77;101392.00;10152401;29;20044;-68
2023/04/04 11:06:00;;;;;;;3.92;0.60;;;;;;;12.62;33.00;101391.97;10150554;29;20060;-68
2023/04/04 11:11:02;;;;;;;2.13;0.70;;;;;;;12.60;32.44;101376.94;10132727;29;20152;-69
2023/04/04 11:16:18;;;;;;;0.90;0.50;;;;;;;12.78;32.71;101358.78;10134452;29;20052;-69
2023/04/04 11:21:26;;;;;;;2.90;0.60;;;;;;;13.30;32.31;101360.38;10164350;29;20049;-69
2023/04/04 11:26:28;;;;;;;2.30;0.50;;;;;;;13.21;32.34;101354.13;10144647;29;20180;-69
2023/04/04 11:31:38;;;;;;;1.80;0.60;;;;;;;13.10;31.78;101351.75;10154657;29;20123;-70
2023/04/04 11:36:41;;;;;;;1.15;0.88;;;;;;;12.90;32.37;101352.06;10149678;29;20051;-68
2023/04/04 11:41:58;;;;;;;2.10;0.40;;;;;;;13.08;32.18;101343.81;10153880;29;20484;-69
2023/04/04 11:47:10;;;;;;;2.00;1.10;;;;;;;13.20;31.38;101336.22;10118615;29;20057;-71
2023/04/04 11:52:14;;;;;;;2.65;0.57;;;;;;;13.21;31.23;101334.34;10146624;29;20496;-71
2023/04/04 11:57:18;;;;;;;2.17;0.60;;;;;;;13.61;30.49;101317.31;10148252;29;20040;-67
2023/04/04 12:02:26;;;;;;;0.77;0.47;;;;;;;13.72;30.40;101307.16;10135352;29;20056;-66
2023/04/04 12:07:28;;;;;;;1.45;0.70;;;;;;;13.80;30.32;101317.94;10151893;29;20111;-66
2023/04/04 12:12:29;;;;;;;3.67;0.80;;;;;;;13.75;30.06;101312.22;10147581;29;20048;-66
2023/04/04 12:17:33;;;;;;;2.05;0.80;;;;;;;13.73;30.43;101315.09;10147694;29;20048;-70
2023/04/04 12:22:35;;;;;;;1.98;0.60;;;;;;;14.28;30.26;101300.69;10146789;29;20059;-67
2023/04/04 12:27:36;;;;;;;1.73;0.60;;;;;;;14.43;29.90;101306.16;10145857;29;20045;-67
2023/04/04 12:32:38;;;;;;;1.65;0.80;;;;;;;13.80;30.47;101296.31;10129277;29;20404;-68
2023/04/04 12:37:56;;;;;;;1.30;0.70;;;;;;;14.33;29.86;101289.31;10143100;29;20050;-67
2023/04/04 12:42:58;;;;;;;1.88;1.00;;;;;;;14.75;28.70;101281.81;10148994;29;20083;-67
2023/04/04 12:48:00;;;;;;;2.15;0.90;;;;;;;15.02;28.78;101275.84;10145171;29;20059;-68
2023/04/04 12:53:04;;;;;;;1.40;0.70;;;;;;;15.26;28.35;101272.09;10147271;29;20144;-67
2023/04/04 12:58:26;;;;;;;2.28;1.15;;;;;;;15.47;28.06;101263.22;10150910;29;20055;-67
2023/04/04 13:03:28;;;;;;;2.13;0.60;;;;;;;15.53;28.09;101269.78;10146759;29;20068;-67
2023/04/04 13:08:30;;;;;;;4.88;0.73;;;;;;;15.99;27.98;101266.88;10147484;29;20467;-68
2023/04/04 13:13:55;;;;;;;2.10;0.70;;;;;;;16.06;27.78;101262.38;10139043;29;20049;-73
2023/04/04 13:18:56;;;;;;;1.83;1.23;;;;;;;15.99;27.81;101252.50;10107556;29;20139;-72
2023/04/04 13:23:57;;;;;;;3.83;0.82;;;;;;;15.92;27.42;101241.56;10118849;29;20048;-73
2023/04/04 13:28:59;;;;;;;1.35;0.77;;;;;;;14.81;27.98;101240.47;10137530;29;20124;-72
2023/04/04 13:34:00;;;;;;;1.77;0.93;;;;;;;15.58;27.66;101234.84;10139862;29;20148;-72
2023/04/04 13:39:01;;;;;;;3.60;0.85;;;;;;;15.74;27.76;101228.41;10139371;29;20108;-73
2023/04/04 13:44:03;;;;;;;0.77;0.60;;;;;;;15.88;27.61;101215.00;10137793;29;20049;-73
2023/04/04 13:49:04;;;;;;;1.90;0.80;;;;;;;15.91;27.47;101217.34;10143210;29;20075;-73
2023/04/04 13:54:06;;;;;;;2.75;0.90;;;;;;;16.13;27.12;101216.34;10129598;29;20512;-71
2023/04/04 13:59:07;;;;;;;2.75;0.80;;;;;;;16.22;27.50;101198.09;10140195;29;20108;-72
2023/04/04 14:04:09;;;;;;;2.22;0.80;;;;;;;16.21;27.25;101190.97;10147558;29;20080;-64
2023/04/04 14:09:24;;;;;;;3.38;0.73;;;;;;;16.24;27.29;101191.44;10147852;29;20060;-64
2023/04/04 14:14:25;;;;;;;2.75;0.90;;;;;;;16.72;26.57;101181.88;10154220;29;20076;-64
2023/04/04 14:19:27;;;;;;;5.63;0.80;;;;;;;17.07;26.61;101181.97;10158073;29;20040;-64
2023/04/04 14:24:28;;;;;;;2.63;1.15;;;;;;;17.38;26.64;101176.09;10150332;29;20048;-61
2023/04/04 14:29:30;;;;;;;2.70;0.88;;;;;;;17.43;26.95;101170.88;10131779;29;20072;-65
2023/04/04 14:34:31;;;;;;;1.25;0.73;;;;;;;17.92;26.66;101167.16;10142927;29;20791;-62
2023/04/04 14:39:32;;;;;;;2.25;1.20;;;;;;;18.26;26.67;101159.91;10149364;29;20052;-64
2023/04/04 14:44:34;;;;;;;1.70;0.75;;;;;;;19.31;25.68;101164.69;10146512;29;20056;-63
2023/04/04 14:49:35;;;;;;;1.55;1.02;;;;;;;20.76;24.12;101148.59;10146235;29;20083;-63
2023/04/04 14:54:37;;;;;;;3.25;1.20;;;;;;;21.06;23.27;101139.69;10150134;29;20100;-64
2023/04/04 14:59:38;;;;;;;3.45;0.88;;;;;;;20.99;23.32;101142.50;10146736;29;20104;-64
2023/04/04 15:04:41;;;;;;;3.22;1.25;;;;;;;20.66;22.94;101140.09;10144230;29;20080;-64
2023/04/04 15:09:42;;;;;;;1.52;1.10;;;;;;;19.45;23.58;101144.53;10146744;29;20055;-65
2023/04/04 15:14:45;;;;;;;2.65;1.20;;;;;;;18.52;24.39;101141.91;10115855;29;20055;-63
2023/04/04 15:19:46;;;;;;;2.45;1.27;;;;;;;17.63;24.90;101132.91;10142941;29;20048;-65
2023/04/04 15:24:47;;;;;;;4.00;2.33;;;;;;;17.42;25.25;101131.16;10154008;29;20041;-72
2023/04/04 15:29:49;;;;;;;1.27;1.00;;;;;;;18.01;24.69;101127.84;10141034;29;20051;-72
2023/04/04 15:34:50;;;;;;;3.55;1.35;;;;;;;17.97;24.77;101121.13;10140575;29;20416;-71
2023/04/04 15:39:52;;;;;;;3.28;1.20;;;;;;;17.42;25.41;101126.56;10144844;29;20071;-69
2023/04/04 15:44:54;;;;;;;4.80;1.08;;;;;;;16.64;25.85;101123.13;10164839;29;20083;-69
2023/04/04 15:49:56;;;;;;;1.58;0.90;;;;;;;16.45;26.00;101124.66;10146493;29;20052;-71
2023/04/04 15:54:57;;;;;;;1.52;0.90;;;;;;;15.97;26.32;101114.38;10141605;29;20044;-73
2023/04/04 15:59:59;;;;;;;4.97;1.52;;;;;;;15.78;26.64;101107.72;10127441;29;20056;-70
2023/04/04 16:05:00;;;;;;;3.25;1.10;;;;;;;15.45;26.72;101110.84;10141732;29;20063;-74
2023/04/04 16:10:02;;;;;;;2.85;1.35;;;;;;;15.39;26.78;101100.75;10142480;29;20394;-76
2023/04/04 16:15:06;;;;;;;2.08;1.08;;;;;;;15.19;27.15;101103.22;10148459;29;20059;-73
2023/04/04 16:20:08;;;;;;;2.22;0.90;;;;;;;15.26;27.36;101098.72;10137652;29;20044;-74
2023/04/04 16:25:10;;;;;;;2.25;0.98;;;;;;;14.98;27.67;101097.69;10138818;29;20052;-75
2023/04/04 16:30:12;;;;;;;1.40;0.93;;;;;;;14.85;28.00;101110.03;10154345;29;20067;-75
2023/04/04 16:35:14;;;;;;;2.95;0.80;;;;;;;14.57;28.73;101106.25;10158923;29;20075;-75
2023/04/04 16:40:17;;;;;;;3.10;0.90;;;;;;;14.43;28.71;101102.44;10135597;29;21088;-73
2023/04/04 16:45:18;;;;;;;1.48;1.10;;;;;;;14.41;28.32;101101.78;10145432;29;20123;-68
2023/04/04 16:50:20;;;;;;;2.53;1.00;;;;;;;14.48;28.72;101092.75;10154873;29;20177;-68
2023/04/04 16:55:25;;;;;;;3.28;0.77;;;;;;;14.19;28.64;101098.91;10146091;29;20048;-70
2023/04/04 17:00:26;;;;;;;2.70;1.10;;;;;;;14.11;28.87;101099.00;10145687;29;20052;-68
2023/04/04 17:05:27;;;;;;;1.50;1.00;;;;;;;14.21;28.64;101087.94;10138119;29;20044;-68
2023/04/04 17:10:30;;;;;;;3.00;1.20;;;;;;;13.91;28.89;101093.22;10154614;29;20044;-68
2023/04/04 17:15:31;;;;;;;3.70;1.00;;;;;;;13.56;29.26;101091.91;10146595;29;20053;-68
2023/04/04 17:20:33;;;;;;;1.98;0.70;;;;;;;13.33;29.74;101094.56;10143825;29;20075;-68
2023/04/04 17:25:35;;;;;;;3.30;1.02;;;;;;;13.22;30.35;101096.59;10142684;29;20052;-66
2023/04/04 17:30:36;;;;;;;2.25;0.95;;;;;;;12.98;30.22;101102.94;10147248;29;20052;-67
2023/04/04 17:35:38;;;;;;;1.23;0.90;;;;;;;12.66;30.75;101101.16;10130788;29;20071;-68
2023/04/04 17:40:40;;;;;;;3.58;1.00;;;;;;;12.47;30.87;101100.50;10120420;29;20084;-67
2023/04/04 17:45:42;;;;;;;2.45;1.00;;;;;;;12.21;31.45;101102.53;10152257;29;20139;-67
2023/04/04 17:50:44;;;;;;;2.50;1.20;;;;;;;11.96;31.50;101110.59;10130986;29;20123;-67
2023/04/04 17:55:45;;;;;;;5.00;0.90;;;;;;;11.73;31.84;101104.09;10150411;29;20048;-68
2023/04/04 18:00:47;;;;;;;3.95;1.00;;;;;;;11.45;32.06;101109.75;10154019;29;20052;-67
2023/04/04 18:05:48;;;;;;;3.83;1.10;;;;;;;11.20;32.54;101111.53;10153304;29;20058;-69
2023/04/04 18:10:51;;;;;;;3.00;1.13;;;;;;;10.98;32.92;101116.47;10132660;29;20056;-70
2023/04/04 18:15:52;;;;;;;3.30;0.80;;;;;;;10.81;33.24;101115.50;10178200;29;20052;-69
2023/04/04 18:20:54;;;;;;;2.38;1.10;;;;;;;10.65;33.58;101115.41;10162550;29;20084;-70
2023/04/04 18:25:55;;;;;;;7.05;1.73;;;;;;;10.41;33.86;101119.59;10151207;29;20060;-70
2023/04/04 18:30:57;;;;;;;2.42;1.65;;;;;;;10.23;34.32;101126.78;10141384;29;20070;-69
2023/04/04 18:35:59;;;;;;;3.83;2.30;;;;;;;10.04;34.80;101139.38;10131121;29;20148;-69
2023/04/04 18:41:00;;;;;;;8.30;3.30;;;;;;;9.89;34.95;101138.22;10136219;29;20709;-69
2023/04/04 18:46:02;;;;;;;6.28;2.47;;;;;;;9.70;34.96;101139.22;10129901;29;20100;-70
2023/04/04 18:51:06;;;;;;;2.40;1.65;;;;;;;9.55;35.56;101143.38;10140115;29;20055;-70
2023/04/04 18:56:08;;;;;;;2.65;1.55;;;;;;;9.37;36.10;101148.72;10136489;29;20056;-69
2023/04/04 19:01:10;;;;;;;2.47;1.50;;;;;;;9.19;36.48;101148.66;10144265;29;20094;-70
2023/04/04 19:06:13;;;;;;;4.03;1.65;;;;;;;9.05;37.02;101148.13;10124005;29;20103;-70
2023/04/04 19:11:15;;;;;;;3.97;2.10;;;;;;;8.91;37.21;101151.28;10128133;29;20437;-70
2023/04/04 19:16:17;;;;;;;4.57;2.72;;;;;;;8.83;37.51;101148.47;10145940;29;20822;-70
2023/04/04 19:21:18;;;;;;;3.30;2.92;;;;;;;8.71;37.49;101153.16;10144438;29;20687;-69
2023/04/04 19:26:20;;;;;;;4.40;2.65;;;;;;;8.63;37.93;101144.97;10131527;29;20432;-69
2023/04/04 19:31:23;;;;;;;2.20;1.70;;;;;;;8.54;38.50;101147.53;10130834;29;20437;-70
2023/04/04 19:36:25;;;;;;;3.17;2.42;;;;;;;8.43;38.80;101152.19;10146035;29;20136;-70
2023/04/04 19:41:34;;;;;;;9.15;4.28;;;;;;;8.30;39.13;101147.09;10142078;29;20060;-69
2023/04/04 19:46:35;;;;;;;8.57;3.88;;;;;;;8.16;39.86;101143.00;10143983;29;20103;-69
2023/04/04 19:51:39;;;;;;;7.30;4.55;;;;;;;8.06;39.73;101140.34;10135958;29;20058;-68
2023/04/04 19:56:43;;;;;;;4.75;3.42;;;;;;;7.92;40.38;101140.75;10144883;29;20455;-67
2023/04/04 20:01:47;;;;;;;7.88;3.95;;;;;;;7.80;41.01;101147.19;10125206;29;20052;-69
2023/04/04 20:07:00;;;;;;;7.20;2.92;;;;;;;7.63;40.51;101146.03;10140979;29;20044;-69
2023/04/04 20:12:03;;;;;;;6.45;3.67;;;;;;;7.46;41.39;101153.72;10124001;29;20476;-68
2023/04/04 20:17:05;;;;;;;5.40;3.60;;;;;;;7.33;41.94;101147.78;10124220;29;20618;-69
2023/04/04 20:22:07;;;;;;;7.70;4.05;;;;;;;7.18;42.08;101149.13;10141108;29;20119;-70
2023/04/04 20:27:09;;;;;;;5.82;3.83;;;;;;;7.06;42.81;101151.88;10145798;29;20050;-69
2023/04/04 20:32:10;;;;;;;3.80;2.50;;;;;;;6.71;43.77;101149.56;10110322;29;20100;-76
2023/04/04 20:37:19;;;;;;;3.60;2.85;;;;;;;6.54;43.84;101154.53;10138907;29;20159;-77
2023/04/04 20:42:30;;;;;;;4.00;2.70;;;;;;;6.45;43.55;101152.63;10125839;29;20670;-75
2023/04/04 20:47:45;;;;;;;5.78;3.60;;;;;;;6.37;43.96;101155.09;10139782;29;20112;-74
2023/04/04 20:52:58;;;;;;;6.75;3.33;;;;;;;6.32;44.09;101157.34;10113631;29;20045;-77
2023/04/04 20:58:07;;;;;;;5.13;3.53;;;;;;;6.36;45.04;101166.78;10121986;29;20667;-77
2023/04/04 21:03:24;;;;;;;4.82;3.50;;;;;;;6.39;44.95;101166.50;10139797;29;20056;-74
2023/04/04 21:08:36;;;;;;;10.30;4.40;;;;;;;6.46;44.14;101170.38;10124726;29;20047;-75
2023/04/04 21:13:42;;;;;;;11.88;5.78;;;;;;;6.40;44.58;101173.56;10126092;29;20369;-77
2023/04/04 21:18:44;;;;;;;7.93;4.07;;;;;;;6.40;45.02;101175.34;10115604;29;20108;-77
2023/04/04 21:23:54;;;;;;;7.40;3.67;;;;;;;6.43;45.71;101170.59;10125700;29;20060;-75
2023/04/04 21:28:58;;;;;;;7.30;3.47;;;;;;;6.33;45.74;101169.69;10126215;29;20063;-78
2023/04/04 21:34:06;;;;;;;7.03;2.85;;;;;;;6.29;45.96;101165.59;10139225;29;20051;-75
2023/04/04 21:39:20;;;;;;;4.50;3.10;;;;;;;6.25;46.36;101173.00;10121127;29;20063;-75
2023/04/04 21:44:22;;;;;;;4.82;3.03;;;;;;;6.08;46.47;101170.88;10123409;29;20041;-74
2023/04/04 21:49:24;;;;;;;5.65;3.25;;;;;;;6.07;46.25;101169.19;10137917;29;20103;-74
2023/04/04 21:54:25;;;;;;;8.20;3.42;;;;;;;5.91;47.11;101167.75;10132737;29;20068;-74
2023/04/04 21:59:27;;;;;;;5.45;3.28;;;;;;;5.95;46.87;101171.03;10145998;29;20120;-73
2023/04/04 22:04:28;;;;;;;6.68;3.00;;;;;;;5.86;46.94;101172.59;10124795;29;20686;-74
2023/04/04 22:09:30;;;;;;;5.32;2.45;;;;;;;5.87;47.26;101170.78;10127813;29;20067;-71
2023/04/04 22:14:31;;;;;;;4.35;2.95;;;;;;;5.90;47.59;101173.19;10131449;29;20049;-74
2023/04/04 22:19:42;;;;;;;5.75;3.45;;;;;;;5.77;48.12;101178.69;10136025;29;20079;-73
2023/04/04 22:24:43;;;;;;;5.72;3.05;;;;;;;5.63;48.59;101171.81;10119900;29;20044;-77
2023/04/04 22:29:45;;;;;;;6.85;2.80;;;;;;;5.58;48.15;101171.31;10140200;29;20128;-77
2023/04/04 22:34:47;;;;;;;3.92;2.58;;;;;;;5.63;48.12;101171.81;10150599;29;20064;-73
2023/04/04 22:39:49;;;;;;;5.78;3.13;;;;;;;5.68;47.97;101158.09;10149209;29;20072;-74
2023/04/04 22:44:51;;;;;;;4.63;2.60;;;;;;;5.67;48.62;101157.25;10141992;29;20139;-76
2023/04/04 22:49:52;;;;;;;4.97;2.85;;;;;;;5.67;48.91;101151.09;10143647;29;20056;-79
2023/04/04 22:54:54;;;;;;;3.17;2.72;;;;;;;5.61;49.16;101159.56;10142921;29;20060;-76
2023/04/04 22:59:55;;;;;;;5.60;2.80;;;;;;;5.63;49.16;101155.81;10124127;29;20115;-75
2023/04/04 23:04:57;;;;;;;7.25;3.17;;;;;;;5.61;49.67;101147.09;10139783;29;21068;-81
2023/04/04 23:09:59;;;;;;;6.07;3.58;;;;;;;5.47;49.83;101147.31;10150664;29;20456;-75
2023/04/04 23:15:02;;;;;;;6.97;2.78;;;;;;;5.45;49.72;101150.16;10148805;29;20074;-75
2023/04/04 23:20:06;;;;;;;5.25;3.10;;;;;;;5.35;49.95;101149.16;10131276;29;20052;-77